sensor_id;sensor_type;location;lat;lon;timestamp;temperature;humidity
44671;DHT22;48397;53.016;-2.260;2022-10-31T00:01:27;11.50;99.90
44671;DHT22;48397;53.016;-2.260;2022-10-31T00:03:55;11.50;99.90
44671;DHT22;48397;53.016;-2.260;2022-10-31T00:06:23;11.50;99.90
44671;DHT22;48397;53.016;-2.260;2022-10-31T00:08:55;11.50;99.90
44671;DHT22;48397;53.016;-2.260;2022-10-31T00:11:23;11.50;99.90
44671;DHT22;48397;53.016;-2.260;2022-10-31T00:13:51;11.50;99.90
44671;DHT22;48397;53.016;-2.260;2022-10-31T00:16:23;11.60;99.90
44671;DHT22;48397;53.016;-2.260;2022-10-31T00:21:20;11.50;99.90
44671;DHT22;48397;53.016;-2.260;2022-10-31T00:23:48;11.50;99.90
44671;DHT22;48397;53.016;-2.260;2022-10-31T00:26:15;11.60;99.90
44671;DHT22;48397;53.016;-2.260;2022-10-31T00:31:12;8.90;99.90
44671;DHT22;48397;53.016;-2.260;2022-10-31T00:33:40;11.50;99.90
44671;DHT22;48397;53.016;-2.260;2022-10-31T00:36:13;11.50;99.90
44671;DHT22;48397;53.016;-2.260;2022-10-31T00:38:42;11.50;99.90
44671;DHT22;48397;53.016;-2.260;2022-10-31T00:41:11;11.50;99.90
44671;DHT22;48397;53.016;-2.260;2022-10-31T00:43:41;11.50;99.90
44671;DHT22;48397;53.016;-2.260;2022-10-31T00:46:10;11.60;99.90
44671;DHT22;48397;53.016;-2.260;2022-10-31T00:58:30;11.60;99.90
44671;DHT22;48397;53.016;-2.260;2022-10-31T01:03:27;11.60;99.90
44671;DHT22;48397;53.016;-2.260;2022-10-31T01:08:33;11.60;99.90
44671;DHT22;48397;53.016;-2.260;2022-10-31T01:11:11;11.50;99.90
44671;DHT22;48397;53.016;-2.260;2022-10-31T01:21:22;11.50;99.90
44671;DHT22;48397;53.016;-2.260;2022-10-31T01:23:52;11.50;99.90
44671;DHT22;48397;53.016;-2.260;2022-10-31T01:26:24;11.50;99.90
44671;DHT22;48397;53.016;-2.260;2022-10-31T01:29:03;11.50;99.90
44671;DHT22;48397;53.016;-2.260;2022-10-31T01:31:32;11.50;99.90
44671;DHT22;48397;53.016;-2.260;2022-10-31T01:34:00;11.50;99.90
44671;DHT22;48397;53.016;-2.260;2022-10-31T01:36:32;11.60;99.90
44671;DHT22;48397;53.016;-2.260;2022-10-31T01:39:04;11.60;99.90
44671;DHT22;48397;53.016;-2.260;2022-10-31T01:41:35;11.70;99.90
44671;DHT22;48397;53.016;-2.260;2022-10-31T01:46:48;11.70;99.90
44671;DHT22;48397;53.016;-2.260;2022-10-31T01:49:21;11.70;99.90
44671;DHT22;48397;53.016;-2.260;2022-10-31T01:54:25;11.60;99.90
44671;DHT22;48397;53.016;-2.260;2022-10-31T01:56:55;11.60;99.90
44671;DHT22;48397;53.016;-2.260;2022-10-31T01:59:26;11.60;99.90
44671;DHT22;48397;53.016;-2.260;2022-10-31T02:01:54;11.60;99.90
44671;DHT22;48397;53.016;-2.260;2022-10-31T02:04:24;11.60;99.90
44671;DHT22;48397;53.016;-2.260;2022-10-31T02:06:59;11.60;99.90
44671;DHT22;48397;53.016;-2.260;2022-10-31T02:09:30;11.70;99.90
44671;DHT22;48397;53.016;-2.260;2022-10-31T02:12:02;11.60;99.90
44671;DHT22;48397;53.016;-2.260;2022-10-31T02:14:30;11.50;99.90
44671;DHT22;48397;53.016;-2.260;2022-10-31T02:19:40;11.50;99.90
44671;DHT22;48397;53.016;-2.260;2022-10-31T02:22:21;11.40;99.90
44671;DHT22;48397;53.016;-2.260;2022-10-31T02:28:20;11.40;99.90
44671;DHT22;48397;53.016;-2.260;2022-10-31T02:34:11;11.30;99.90
44671;DHT22;48397;53.016;-2.260;2022-10-31T02:39:29;11.20;99.90
44671;DHT22;48397;53.016;-2.260;2022-10-31T02:44:43;11.10;99.90
44671;DHT22;48397;53.016;-2.260;2022-10-31T02:47:18;11.10;99.90
44671;DHT22;48397;53.016;-2.260;2022-10-31T02:50:00;11.10;99.90
44671;DHT22;48397;53.016;-2.260;2022-10-31T02:52:32;11.10;99.90
44671;DHT22;48397;53.016;-2.260;2022-10-31T02:58:12;11.20;99.90
44671;DHT22;48397;53.016;-2.260;2022-10-31T03:00:54;11.30;99.90
44671;DHT22;48397;53.016;-2.260;2022-10-31T03:03:47;11.30;99.90
44671;DHT22;48397;53.016;-2.260;2022-10-31T03:09:41;11.50;99.90
44671;DHT22;48397;53.016;-2.260;2022-10-31T03:12:24;11.50;99.90
44671;DHT22;48397;53.016;-2.260;2022-10-31T03:20:33;11.60;99.90
44671;DHT22;48397;53.016;-2.260;2022-10-31T03:23:05;11.60;99.90
44671;DHT22;48397;53.016;-2.260;2022-10-31T03:25:36;11.70;99.90
44671;DHT22;48397;53.016;-2.260;2022-10-31T03:28:06;11.70;99.90
44671;DHT22;48397;53.016;-2.260;2022-10-31T03:30:36;11.70;99.90
44671;DHT22;48397;53.016;-2.260;2022-10-31T03:33:10;11.60;99.90
44671;DHT22;48397;53.016;-2.260;2022-10-31T03:35:42;11.60;99.90
44671;DHT22;48397;53.016;-2.260;2022-10-31T03:38:13;11.60;99.90
44671;DHT22;48397;53.016;-2.260;2022-10-31T03:40:45;11.50;99.90
44671;DHT22;48397;53.016;-2.260;2022-10-31T03:43:18;11.40;99.90
44671;DHT22;48397;53.016;-2.260;2022-10-31T03:45:48;11.20;99.90
44671;DHT22;48397;53.016;-2.260;2022-10-31T03:48:18;11.20;99.90
44671;DHT22;48397;53.016;-2.260;2022-10-31T03:53:44;11.20;99.90
44671;DHT22;48397;53.016;-2.260;2022-10-31T03:56:37;11.20;99.90
44671;DHT22;48397;53.016;-2.260;2022-10-31T03:59:15;11.20;99.90
44671;DHT22;48397;53.016;-2.260;2022-10-31T04:01:50;11.20;99.90
44671;DHT22;48397;53.016;-2.260;2022-10-31T04:04:20;11.20;99.90
44671;DHT22;48397;53.016;-2.260;2022-10-31T04:06:50;11.20;99.90
44671;DHT22;48397;53.016;-2.260;2022-10-31T04:09:19;11.20;99.90
44671;DHT22;48397;53.016;-2.260;2022-10-31T04:11:51;11.20;99.90
44671;DHT22;48397;53.016;-2.260;2022-10-31T04:14:56;11.20;99.90
44671;DHT22;48397;53.016;-2.260;2022-10-31T04:17:27;11.20;99.90
44671;DHT22;48397;53.016;-2.260;2022-10-31T04:19:59;11.30;99.90
44671;DHT22;48397;53.016;-2.260;2022-10-31T04:22:28;11.30;99.90
44671;DHT22;48397;53.016;-2.260;2022-10-31T04:27:24;11.50;99.90
44671;DHT22;48397;53.016;-2.260;2022-10-31T04:29:52;11.60;99.90
44671;DHT22;48397;53.016;-2.260;2022-10-31T04:32:19;11.60;99.90
44671;DHT22;48397;53.016;-2.260;2022-10-31T04:37:15;11.60;99.90
44671;DHT22;48397;53.016;-2.260;2022-10-31T04:45:08;11.70;99.90
44671;DHT22;48397;53.016;-2.260;2022-10-31T04:52:41;11.70;99.90
44671;DHT22;48397;53.016;-2.260;2022-10-31T04:55:11;11.70;99.90
44671;DHT22;48397;53.016;-2.260;2022-10-31T04:57:58;11.70;99.90
44671;DHT22;48397;53.016;-2.260;2022-10-31T05:00:27;11.70;99.90
44671;DHT22;48397;53.016;-2.260;2022-10-31T05:02:56;11.70;99.90
44671;DHT22;48397;53.016;-2.260;2022-10-31T05:05:29;11.70;99.90
44671;DHT22;48397;53.016;-2.260;2022-10-31T05:08:00;11.70;99.90
44671;DHT22;48397;53.016;-2.260;2022-10-31T05:10:30;11.70;99.90
44671;DHT22;48397;53.016;-2.260;2022-10-31T05:13:01;11.80;99.90
44671;DHT22;48397;53.016;-2.260;2022-10-31T05:15:49;11.80;99.90
44671;DHT22;48397;53.016;-2.260;2022-10-31T05:18:46;11.80;99.90
44671;DHT22;48397;53.016;-2.260;2022-10-31T05:21:28;11.90;99.90
44671;DHT22;48397;53.016;-2.260;2022-10-31T05:24:02;11.90;99.90
44671;DHT22;48397;53.016;-2.260;2022-10-31T05:26:31;11.90;99.90
44671;DHT22;48397;53.016;-2.260;2022-10-31T05:28:59;12.00;99.90
44671;DHT22;48397;53.016;-2.260;2022-10-31T05:31:28;12.00;99.90
44671;DHT22;48397;53.016;-2.260;2022-10-31T05:33:55;12.10;99.90
44671;DHT22;48397;53.016;-2.260;2022-10-31T05:36:43;12.10;99.90
44671;DHT22;48397;53.016;-2.260;2022-10-31T05:39:16;13.10;99.90
44671;DHT22;48397;53.016;-2.260;2022-10-31T05:41:47;12.20;99.90
44671;DHT22;48397;53.016;-2.260;2022-10-31T05:49:54;12.30;99.90
44671;DHT22;48397;53.016;-2.260;2022-10-31T05:52:40;12.30;99.90
44671;DHT22;48397;53.016;-2.260;2022-10-31T05:55:21;12.30;99.90
44671;DHT22;48397;53.016;-2.260;2022-10-31T05:58:07;12.30;99.90
44671;DHT22;48397;53.016;-2.260;2022-10-31T06:00:37;12.40;99.90
44671;DHT22;48397;53.016;-2.260;2022-10-31T06:03:08;12.40;99.90
44671;DHT22;48397;53.016;-2.260;2022-10-31T06:06:02;12.40;99.90
44671;DHT22;48397;53.016;-2.260;2022-10-31T06:08:35;12.40;99.90
44671;DHT22;48397;53.016;-2.260;2022-10-31T06:11:11;12.30;99.90
44671;DHT22;48397;53.016;-2.260;2022-10-31T06:14:17;12.20;99.90
44671;DHT22;48397;53.016;-2.260;2022-10-31T06:19:38;12.00;99.90
44671;DHT22;48397;53.016;-2.260;2022-10-31T06:22:06;12.00;99.90
44671;DHT22;48397;53.016;-2.260;2022-10-31T06:24:33;12.00;99.90
44671;DHT22;48397;53.016;-2.260;2022-10-31T06:27:21;12.00;99.90
44671;DHT22;48397;53.016;-2.260;2022-10-31T06:32:36;12.10;99.90
44671;DHT22;48397;53.016;-2.260;2022-10-31T06:35:04;12.00;99.90
44671;DHT22;48397;53.016;-2.260;2022-10-31T06:37:34;12.00;99.90
44671;DHT22;48397;53.016;-2.260;2022-10-31T06:40:18;12.10;99.90
44671;DHT22;48397;53.016;-2.260;2022-10-31T06:45:35;12.20;99.90
44671;DHT22;48397;53.016;-2.260;2022-10-31T06:48:20;12.30;99.90
44671;DHT22;48397;53.016;-2.260;2022-10-31T06:51:08;12.30;99.90
44671;DHT22;48397;53.016;-2.260;2022-10-31T06:53:37;12.30;99.90
44671;DHT22;48397;53.016;-2.260;2022-10-31T06:58:40;12.30;99.90
44671;DHT22;48397;53.016;-2.260;2022-10-31T07:01:09;12.30;99.90
44671;DHT22;48397;53.016;-2.260;2022-10-31T07:06:05;12.30;99.90
44671;DHT22;48397;53.016;-2.260;2022-10-31T07:13:29;12.20;99.90
44671;DHT22;48397;53.016;-2.260;2022-10-31T07:18:35;12.20;99.90
44671;DHT22;48397;53.016;-2.260;2022-10-31T07:21:03;12.10;99.90
44671;DHT22;48397;53.016;-2.260;2022-10-31T07:23:31;12.10;99.90
44671;DHT22;48397;53.016;-2.260;2022-10-31T07:26:28;12.20;99.90
44671;DHT22;48397;53.016;-2.260;2022-10-31T07:28:55;12.10;99.90
44671;DHT22;48397;53.016;-2.260;2022-10-31T07:31:25;12.20;99.90
44671;DHT22;48397;53.016;-2.260;2022-10-31T07:38:56;12.20;99.90
44671;DHT22;48397;53.016;-2.260;2022-10-31T07:43:54;12.20;99.90
44671;DHT22;48397;53.016;-2.260;2022-10-31T07:46:42;12.20;99.90
44671;DHT22;48397;53.016;-2.260;2022-10-31T07:58:11;12.20;99.90
44671;DHT22;48397;53.016;-2.260;2022-10-31T08:00:41;12.20;99.90
44671;DHT22;48397;53.016;-2.260;2022-10-31T08:03:13;12.20;99.90
44671;DHT22;48397;53.016;-2.260;2022-10-31T08:06:13;12.30;99.90
44671;DHT22;48397;53.016;-2.260;2022-10-31T08:09:09;12.40;99.90
44671;DHT22;48397;53.016;-2.260;2022-10-31T08:11:38;12.40;99.90
44671;DHT22;48397;53.016;-2.260;2022-10-31T08:14:06;12.50;99.90
44671;DHT22;48397;53.016;-2.260;2022-10-31T08:16:34;12.70;99.90
44671;DHT22;48397;53.016;-2.260;2022-10-31T08:19:04;12.70;99.90
44671;DHT22;48397;53.016;-2.260;2022-10-31T08:21:37;12.90;99.90
44671;DHT22;48397;53.016;-2.260;2022-10-31T08:24:06;12.90;99.90
44671;DHT22;48397;53.016;-2.260;2022-10-31T08:26:34;13.10;99.90
44671;DHT22;48397;53.016;-2.260;2022-10-31T08:29:03;13.30;99.90
44671;DHT22;48397;53.016;-2.260;2022-10-31T08:31:33;13.40;99.90
44671;DHT22;48397;53.016;-2.260;2022-10-31T08:34:25;13.50;99.90
44671;DHT22;48397;53.016;-2.260;2022-10-31T08:37:11;13.60;99.90
44671;DHT22;48397;53.016;-2.260;2022-10-31T08:39:43;13.70;99.90
44671;DHT22;48397;53.016;-2.260;2022-10-31T08:42:11;13.70;99.90
44671;DHT22;48397;53.016;-2.260;2022-10-31T08:44:38;13.80;99.90
44671;DHT22;48397;53.016;-2.260;2022-10-31T08:47:06;13.90;99.90
44671;DHT22;48397;53.016;-2.260;2022-10-31T08:49:34;13.90;99.90
44671;DHT22;48397;53.016;-2.260;2022-10-31T08:52:02;13.90;99.90
44671;DHT22;48397;53.016;-2.260;2022-10-31T08:54:34;13.90;99.90
44671;DHT22;48397;53.016;-2.260;2022-10-31T08:57:21;13.90;99.90
44671;DHT22;48397;53.016;-2.260;2022-10-31T08:59:48;14.00;99.90
44671;DHT22;48397;53.016;-2.260;2022-10-31T09:02:24;14.00;99.90
44671;DHT22;48397;53.016;-2.260;2022-10-31T09:07:24;14.10;99.90
44671;DHT22;48397;53.016;-2.260;2022-10-31T09:09:53;14.10;99.90
44671;DHT22;48397;53.016;-2.260;2022-10-31T09:12:23;14.10;99.90
44671;DHT22;48397;53.016;-2.260;2022-10-31T09:15:09;14.10;99.90
44671;DHT22;48397;53.016;-2.260;2022-10-31T09:17:47;14.10;99.90
44671;DHT22;48397;53.016;-2.260;2022-10-31T09:20:28;14.10;99.90
44671;DHT22;48397;53.016;-2.260;2022-10-31T09:23:00;14.10;99.90
44671;DHT22;48397;53.016;-2.260;2022-10-31T09:25:30;14.20;99.90
44671;DHT22;48397;53.016;-2.260;2022-10-31T09:28:18;14.20;99.90
44671;DHT22;48397;53.016;-2.260;2022-10-31T09:30:48;14.20;99.90
44671;DHT22;48397;53.016;-2.260;2022-10-31T09:33:23;14.20;99.90
44671;DHT22;48397;53.016;-2.260;2022-10-31T09:36:11;14.20;99.90
44671;DHT22;48397;53.016;-2.260;2022-10-31T09:38:41;14.30;99.90
44671;DHT22;48397;53.016;-2.260;2022-10-31T09:52:45;14.30;99.90
44671;DHT22;48397;53.016;-2.260;2022-10-31T09:54:54;14.40;99.90
44671;DHT22;48397;53.016;-2.260;2022-10-31T09:57:31;14.40;99.90
44671;DHT22;48397;53.016;-2.260;2022-10-31T10:00:00;14.50;99.90
44671;DHT22;48397;53.016;-2.260;2022-10-31T10:02:40;14.50;99.90
44671;DHT22;48397;53.016;-2.260;2022-10-31T10:05:14;14.50;99.90
44671;DHT22;48397;53.016;-2.260;2022-10-31T10:07:55;14.60;99.90
44671;DHT22;48397;53.016;-2.260;2022-10-31T10:10:45;14.60;99.90
44671;DHT22;48397;53.016;-2.260;2022-10-31T10:22:14;14.60;99.90
44671;DHT22;48397;53.016;-2.260;2022-10-31T10:27:52;14.70;99.90
44671;DHT22;48397;53.016;-2.260;2022-10-31T10:30:35;14.70;99.90
44671;DHT22;48397;53.016;-2.260;2022-10-31T10:38:58;14.90;99.90
44671;DHT22;48397;53.016;-2.260;2022-10-31T10:41:31;15.10;99.90
44671;DHT22;48397;53.016;-2.260;2022-10-31T10:44:01;15.20;99.90
44671;DHT22;48397;53.016;-2.260;2022-10-31T10:46:48;15.20;99.90
44671;DHT22;48397;53.016;-2.260;2022-10-31T10:49:45;15.40;99.90
44671;DHT22;48397;53.016;-2.260;2022-10-31T10:52:27;15.40;99.90
44671;DHT22;48397;53.016;-2.260;2022-10-31T11:00:29;15.50;99.90
44671;DHT22;48397;53.016;-2.260;2022-10-31T11:02:57;15.70;99.90
44671;DHT22;48397;53.016;-2.260;2022-10-31T11:07:59;14.30;99.90
44671;DHT22;48397;53.016;-2.260;2022-10-31T11:10:27;15.90;99.90
44671;DHT22;48397;53.016;-2.260;2022-10-31T11:16:04;15.90;99.90
44671;DHT22;48397;53.016;-2.260;2022-10-31T11:18:36;15.80;99.90
44671;DHT22;48397;53.016;-2.260;2022-10-31T11:21:05;15.70;99.90
44671;DHT22;48397;53.016;-2.260;2022-10-31T11:23:33;15.60;99.90
44671;DHT22;48397;53.016;-2.260;2022-10-31T11:28:30;15.50;99.90
44671;DHT22;48397;53.016;-2.260;2022-10-31T11:31:12;15.60;99.90
44671;DHT22;48397;53.016;-2.260;2022-10-31T11:33:47;15.50;99.90
44671;DHT22;48397;53.016;-2.260;2022-10-31T11:38:46;15.40;99.90
44671;DHT22;48397;53.016;-2.260;2022-10-31T11:41:20;15.40;99.90
44671;DHT22;48397;53.016;-2.260;2022-10-31T11:44:04;15.40;99.90
44671;DHT22;48397;53.016;-2.260;2022-10-31T11:46:45;15.40;99.90
44671;DHT22;48397;53.016;-2.260;2022-10-31T11:49:30;15.40;99.90
44671;DHT22;48397;53.016;-2.260;2022-10-31T11:52:05;15.30;99.90
44671;DHT22;48397;53.016;-2.260;2022-10-31T11:54:41;15.30;99.90
44671;DHT22;48397;53.016;-2.260;2022-10-31T11:57:27;15.30;99.90
44671;DHT22;48397;53.016;-2.260;2022-10-31T11:59:58;15.30;99.90
44671;DHT22;48397;53.016;-2.260;2022-10-31T12:02:26;15.30;99.90
44671;DHT22;48397;53.016;-2.260;2022-10-31T12:05:18;15.30;99.90
44671;DHT22;48397;53.016;-2.260;2022-10-31T12:07:48;15.30;99.90
44671;DHT22;48397;53.016;-2.260;2022-10-31T12:10:19;15.40;99.90
44671;DHT22;48397;53.016;-2.260;2022-10-31T12:13:24;15.50;99.90
44671;DHT22;48397;53.016;-2.260;2022-10-31T12:16:06;15.50;99.90
44671;DHT22;48397;53.016;-2.260;2022-10-31T12:21:44;15.50;99.90
44671;DHT22;48397;53.016;-2.260;2022-10-31T12:24:32;15.50;99.90
44671;DHT22;48397;53.016;-2.260;2022-10-31T12:27:22;15.50;99.90
44671;DHT22;48397;53.016;-2.260;2022-10-31T12:32:47;15.60;99.90
44671;DHT22;48397;53.016;-2.260;2022-10-31T12:40:57;15.60;99.90
44671;DHT22;48397;53.016;-2.260;2022-10-31T12:46:02;15.60;99.90
44671;DHT22;48397;53.016;-2.260;2022-10-31T12:57:16;15.70;99.90
44671;DHT22;48397;53.016;-2.260;2022-10-31T12:59:50;15.80;99.90
44671;DHT22;48397;53.016;-2.260;2022-10-31T13:02:42;15.90;99.90
44671;DHT22;48397;53.016;-2.260;2022-10-31T13:05:33;15.90;99.90
44671;DHT22;48397;53.016;-2.260;2022-10-31T13:08:14;16.00;99.90
44671;DHT22;48397;53.016;-2.260;2022-10-31T13:10:55;16.00;99.90
44671;DHT22;48397;53.016;-2.260;2022-10-31T13:13:41;16.00;99.90
44671;DHT22;48397;53.016;-2.260;2022-10-31T13:16:19;16.00;99.90
44671;DHT22;48397;53.016;-2.260;2022-10-31T13:24:23;15.90;99.90
44671;DHT22;48397;53.016;-2.260;2022-10-31T13:26:56;15.80;99.90
44671;DHT22;48397;53.016;-2.260;2022-10-31T13:29:40;15.80;99.90
44671;DHT22;48397;53.016;-2.260;2022-10-31T13:32:10;15.80;99.90
44671;DHT22;48397;53.016;-2.260;2022-10-31T13:34:50;15.80;99.90
44671;DHT22;48397;53.016;-2.260;2022-10-31T13:37:40;15.80;99.90
44671;DHT22;48397;53.016;-2.260;2022-10-31T13:42:58;15.80;99.90
44671;DHT22;48397;53.016;-2.260;2022-10-31T13:45:28;15.80;99.90
44671;DHT22;48397;53.016;-2.260;2022-10-31T13:50:43;15.70;99.90
44671;DHT22;48397;53.016;-2.260;2022-10-31T13:53:22;15.60;99.90
44671;DHT22;48397;53.016;-2.260;2022-10-31T14:01:31;15.50;99.90
44671;DHT22;48397;53.016;-2.260;2022-10-31T14:04:22;15.50;99.90
44671;DHT22;48397;53.016;-2.260;2022-10-31T14:06:54;15.40;99.90
44671;DHT22;48397;53.016;-2.260;2022-10-31T14:09:31;15.40;99.90
44671;DHT22;48397;53.016;-2.260;2022-10-31T14:12:37;15.40;99.90
44671;DHT22;48397;53.016;-2.260;2022-10-31T14:15:13;15.40;99.90
44671;DHT22;48397;53.016;-2.260;2022-10-31T14:18:05;15.30;99.90
44671;DHT22;48397;53.016;-2.260;2022-10-31T14:20:41;15.30;99.90
44671;DHT22;48397;53.016;-2.260;2022-10-31T14:28:49;15.30;99.90
44671;DHT22;48397;53.016;-2.260;2022-10-31T14:31:41;15.30;99.90
44671;DHT22;48397;53.016;-2.260;2022-10-31T14:34:32;15.30;99.90
44671;DHT22;48397;53.016;-2.260;2022-10-31T14:40:25;15.10;99.90
44671;DHT22;48397;53.016;-2.260;2022-10-31T14:46:41;15.10;99.90
44671;DHT22;48397;53.016;-2.260;2022-10-31T14:49:18;15.00;99.90
44671;DHT22;48397;53.016;-2.260;2022-10-31T14:51:50;15.20;99.90
44671;DHT22;48397;53.016;-2.260;2022-10-31T14:54:30;15.20;99.90
44671;DHT22;48397;53.016;-2.260;2022-10-31T14:57:28;15.20;99.90
44671;DHT22;48397;53.016;-2.260;2022-10-31T15:00:00;15.20;99.90
44671;DHT22;48397;53.016;-2.260;2022-10-31T15:02:46;15.20;99.90
44671;DHT22;48397;53.016;-2.260;2022-10-31T15:05:16;15.20;99.90
44671;DHT22;48397;53.016;-2.260;2022-10-31T15:07:50;15.10;99.90
44671;DHT22;48397;53.016;-2.260;2022-10-31T15:10:37;15.10;99.90
44671;DHT22;48397;53.016;-2.260;2022-10-31T15:13:18;15.10;99.90
44671;DHT22;48397;53.016;-2.260;2022-10-31T15:15:47;15.10;99.90
44671;DHT22;48397;53.016;-2.260;2022-10-31T15:18:25;15.10;99.90
44671;DHT22;48397;53.016;-2.260;2022-10-31T15:20:54;15.10;99.90
44671;DHT22;48397;53.016;-2.260;2022-10-31T15:23:25;15.00;99.90
44671;DHT22;48397;53.016;-2.260;2022-10-31T15:25:59;14.90;99.90
44671;DHT22;48397;53.016;-2.260;2022-10-31T15:28:28;14.90;99.90
44671;DHT22;48397;53.016;-2.260;2022-10-31T15:31:00;14.80;99.90
44671;DHT22;48397;53.016;-2.260;2022-10-31T15:33:39;14.80;99.90
44671;DHT22;48397;53.016;-2.260;2022-10-31T15:36:22;14.60;99.90
44671;DHT22;48397;53.016;-2.260;2022-10-31T15:38:56;14.60;99.90
44671;DHT22;48397;53.016;-2.260;2022-10-31T15:41:32;14.60;99.90
44671;DHT22;48397;53.016;-2.260;2022-10-31T15:44:10;14.50;99.90
44671;DHT22;48397;53.016;-2.260;2022-10-31T15:46:40;14.50;99.90
44671;DHT22;48397;53.016;-2.260;2022-10-31T15:52:14;14.30;99.90
44671;DHT22;48397;53.016;-2.260;2022-10-31T15:54:54;14.20;99.90
44671;DHT22;48397;53.016;-2.260;2022-10-31T15:57:24;14.20;99.90
44671;DHT22;48397;53.016;-2.260;2022-10-31T15:59:53;14.10;99.90
44671;DHT22;48397;53.016;-2.260;2022-10-31T16:02:23;14.10;99.90
44671;DHT22;48397;53.016;-2.260;2022-10-31T16:05:00;14.00;99.90
44671;DHT22;48397;53.016;-2.260;2022-10-31T16:07:29;14.00;99.90
44671;DHT22;48397;53.016;-2.260;2022-10-31T16:09:59;14.00;99.90
44671;DHT22;48397;53.016;-2.260;2022-10-31T16:12:42;13.90;99.90
44671;DHT22;48397;53.016;-2.260;2022-10-31T16:15:15;13.90;99.90
44671;DHT22;48397;53.016;-2.260;2022-10-31T16:17:45;13.80;99.90
44671;DHT22;48397;53.016;-2.260;2022-10-31T16:20:27;13.80;99.90
44671;DHT22;48397;53.016;-2.260;2022-10-31T16:22:56;13.70;99.90
44671;DHT22;48397;53.016;-2.260;2022-10-31T16:25:29;13.70;99.90
44671;DHT22;48397;53.016;-2.260;2022-10-31T16:28:18;13.70;99.90
44671;DHT22;48397;53.016;-2.260;2022-10-31T16:31:12;13.70;99.90
44671;DHT22;48397;53.016;-2.260;2022-10-31T16:33:37;13.70;99.90
44671;DHT22;48397;53.016;-2.260;2022-10-31T16:36:33;13.70;99.90
44671;DHT22;48397;53.016;-2.260;2022-10-31T16:39:06;13.70;99.90
44671;DHT22;48397;53.016;-2.260;2022-10-31T16:41:45;13.70;99.90
44671;DHT22;48397;53.016;-2.260;2022-10-31T16:44:23;13.70;99.90
44671;DHT22;48397;53.016;-2.260;2022-10-31T16:47:13;13.70;99.90
44671;DHT22;48397;53.016;-2.260;2022-10-31T16:49:42;13.80;99.90
44671;DHT22;48397;53.016;-2.260;2022-10-31T16:52:10;13.80;99.90
44671;DHT22;48397;53.016;-2.260;2022-10-31T16:54:38;13.80;99.90
44671;DHT22;48397;53.016;-2.260;2022-10-31T16:57:06;13.70;99.90
44671;DHT22;48397;53.016;-2.260;2022-10-31T16:59:37;13.70;99.90
44671;DHT22;48397;53.016;-2.260;2022-10-31T17:02:15;13.80;99.90
44671;DHT22;48397;53.016;-2.260;2022-10-31T17:04:43;13.80;99.90
44671;DHT22;48397;53.016;-2.260;2022-10-31T17:07:11;13.80;99.90
44671;DHT22;48397;53.016;-2.260;2022-10-31T17:12:14;13.80;99.90
44671;DHT22;48397;53.016;-2.260;2022-10-31T17:14:48;13.70;99.90
44671;DHT22;48397;53.016;-2.260;2022-10-31T17:17:18;13.80;99.90
44671;DHT22;48397;53.016;-2.260;2022-10-31T17:22:14;13.80;99.90
44671;DHT22;48397;53.016;-2.260;2022-10-31T17:24:41;13.80;99.90
44671;DHT22;48397;53.016;-2.260;2022-10-31T17:27:09;13.80;99.90
44671;DHT22;48397;53.016;-2.260;2022-10-31T17:29:37;13.80;99.90
44671;DHT22;48397;53.016;-2.260;2022-10-31T17:32:05;13.70;99.90
44671;DHT22;48397;53.016;-2.260;2022-10-31T17:34:32;13.70;99.90
44671;DHT22;48397;53.016;-2.260;2022-10-31T17:37:00;13.70;99.90
44671;DHT22;48397;53.016;-2.260;2022-10-31T17:39:27;13.60;99.90
44671;DHT22;48397;53.016;-2.260;2022-10-31T17:41:55;13.60;99.90
44671;DHT22;48397;53.016;-2.260;2022-10-31T17:44:22;13.60;99.90
44671;DHT22;48397;53.016;-2.260;2022-10-31T17:46:50;13.50;99.90
44671;DHT22;48397;53.016;-2.260;2022-10-31T17:49:18;13.50;99.90
44671;DHT22;48397;53.016;-2.260;2022-10-31T17:51:45;13.40;99.90
44671;DHT22;48397;53.016;-2.260;2022-10-31T17:54:13;13.30;99.90
44671;DHT22;48397;53.016;-2.260;2022-10-31T18:01:40;13.10;99.90
44671;DHT22;48397;53.016;-2.260;2022-10-31T18:06:35;13.00;99.90
44671;DHT22;48397;53.016;-2.260;2022-10-31T18:09:04;13.00;99.90
44671;DHT22;48397;53.016;-2.260;2022-10-31T18:14:00;12.80;99.90
44671;DHT22;48397;53.016;-2.260;2022-10-31T18:18:57;12.70;99.90
44671;DHT22;48397;53.016;-2.260;2022-10-31T18:21:31;12.80;99.90
44671;DHT22;48397;53.016;-2.260;2022-10-31T18:23:59;12.70;99.90
44671;DHT22;48397;53.016;-2.260;2022-10-31T18:26:29;12.70;99.90
44671;DHT22;48397;53.016;-2.260;2022-10-31T18:28:57;12.70;99.90
44671;DHT22;48397;53.016;-2.260;2022-10-31T18:31:24;12.60;99.90
44671;DHT22;48397;53.016;-2.260;2022-10-31T18:33:53;12.70;99.90
44671;DHT22;48397;53.016;-2.260;2022-10-31T18:36:22;12.60;99.90
44671;DHT22;48397;53.016;-2.260;2022-10-31T18:38:50;12.60;99.90
44671;DHT22;48397;53.016;-2.260;2022-10-31T18:41:18;12.70;99.90
44671;DHT22;48397;53.016;-2.260;2022-10-31T18:43:46;12.60;99.90
44671;DHT22;48397;53.016;-2.260;2022-10-31T18:46:15;9.20;99.90
44671;DHT22;48397;53.016;-2.260;2022-10-31T18:48:43;12.60;99.90
44671;DHT22;48397;53.016;-2.260;2022-10-31T18:51:12;12.70;99.90
44671;DHT22;48397;53.016;-2.260;2022-10-31T18:53:41;12.70;99.90
44671;DHT22;48397;53.016;-2.260;2022-10-31T18:56:09;12.70;99.90
44671;DHT22;48397;53.016;-2.260;2022-10-31T18:58:37;12.70;99.90
44671;DHT22;48397;53.016;-2.260;2022-10-31T19:01:10;12.70;99.90
44671;DHT22;48397;53.016;-2.260;2022-10-31T19:03:38;12.70;99.90
44671;DHT22;48397;53.016;-2.260;2022-10-31T19:06:06;12.70;99.90
44671;DHT22;48397;53.016;-2.260;2022-10-31T19:11:13;12.70;99.90
44671;DHT22;48397;53.016;-2.260;2022-10-31T19:16:13;12.70;99.90
44671;DHT22;48397;53.016;-2.260;2022-10-31T19:18:42;12.60;99.90
44671;DHT22;48397;53.016;-2.260;2022-10-31T19:21:15;12.60;99.90
44671;DHT22;48397;53.016;-2.260;2022-10-31T19:23:44;12.60;99.90
44671;DHT22;48397;53.016;-2.260;2022-10-31T19:26:12;12.60;99.90
44671;DHT22;48397;53.016;-2.260;2022-10-31T19:28:40;12.60;99.90
44671;DHT22;48397;53.016;-2.260;2022-10-31T19:31:09;12.60;99.90
44671;DHT22;48397;53.016;-2.260;2022-10-31T19:33:37;12.60;99.90
44671;DHT22;48397;53.016;-2.260;2022-10-31T19:36:10;12.60;99.90
44671;DHT22;48397;53.016;-2.260;2022-10-31T19:38:40;12.60;99.90
44671;DHT22;48397;53.016;-2.260;2022-10-31T19:43:39;12.60;99.90
44671;DHT22;48397;53.016;-2.260;2022-10-31T19:46:08;12.60;99.90
44671;DHT22;48397;53.016;-2.260;2022-10-31T19:48:54;12.60;99.90
44671;DHT22;48397;53.016;-2.260;2022-10-31T19:51:21;12.60;99.90
44671;DHT22;48397;53.016;-2.260;2022-10-31T19:53:49;12.60;99.90
44671;DHT22;48397;53.016;-2.260;2022-10-31T19:56:21;12.50;99.90
44671;DHT22;48397;53.016;-2.260;2022-10-31T19:58:49;12.60;99.90
44671;DHT22;48397;53.016;-2.260;2022-10-31T20:01:21;12.60;99.90
44671;DHT22;48397;53.016;-2.260;2022-10-31T20:06:24;12.60;99.90
44671;DHT22;48397;53.016;-2.260;2022-10-31T20:08:53;12.60;99.90